Time;durP1;ratioP1;P1;durP2;ratioP2;P2;SDS_P1;SDS_P2;PMS_P1;PMS_P2;Temp;Humidity;BMP_temperature;BMP_pressure;BME280_temperature;BME280_humidity;BME280_pressure;Samples;Min_cycle;Max_cycle;Signal;HPM_P1;HPM_P2
2023/10/19 00:02:05;;;;;;;59.50;37.90;;;;;;;;;;4954240;28;20466;-62
2023/10/19 00:04:34;;;;;;;51.40;37.90;;;;;;;;;;4954489;29;20419;-62
2023/10/19 00:07:00;;;;;;;53.00;37.77;;;;;;;;;;4953750;28;20434;-63
2023/10/19 00:09:31;;;;;;;58.53;39.80;;;;;;;;;;4953858;29;20793;-63
2023/10/19 00:11:57;;;;;;;56.33;38.43;;;;;;;;;;4954315;28;20423;-63
2023/10/19 00:14:25;;;;;;;62.70;39.83;;;;;;;;;;4954299;28;20431;-62
2023/10/19 00:17:00;;;;;;;51.00;36.97;;;;;;;;;;4953120;29;20428;-63
2023/10/19 00:19:28;;;;;;;59.10;39.87;;;;;;;;;;4954256;28;20911;-62
2023/10/19 00:22:02;;;;;;;54.70;39.43;;;;;;;;;;4954446;28;20780;-62
2023/10/19 00:24:31;;;;;;;72.03;41.70;;;;;;;;;;4952948;28;20439;-62
2023/10/19 00:27:05;;;;;;;58.57;39.87;;;;;;;;;;4954098;28;20416;-62
2023/10/19 00:29:40;;;;;;;58.07;39.10;;;;;;;;;;4954301;28;20795;-62
2023/10/19 00:32:06;;;;;;;51.03;36.40;;;;;;;;;;4953622;28;20439;-62
2023/10/19 00:34:33;;;;;;;52.67;37.07;;;;;;;;;;4953816;28;20419;-62
2023/10/19 00:37:07;;;;;;;68.77;39.30;;;;;;;;;;4953990;28;20411;-62
2023/10/19 00:39:42;;;;;;;58.93;38.30;;;;;;;;;;4953961;28;20441;-62
2023/10/19 00:42:08;;;;;;;57.90;38.60;;;;;;;;;;4953000;28;20485;-62
2023/10/19 00:44:42;;;;;;;51.37;36.60;;;;;;;;;;4953533;28;20780;-62
2023/10/19 00:47:18;;;;;;;52.97;37.40;;;;;;;;;;4953637;28;20431;-62
2023/10/19 00:49:44;;;;;;;55.03;37.83;;;;;;;;;;4953973;28;20423;-62
2023/10/19 00:52:11;;;;;;;52.43;34.60;;;;;;;;;;4953647;29;20891;-62
2023/10/19 00:57:20;;;;;;;43.60;33.07;;;;;;;;;;4953904;28;20530;-62
2023/10/19 00:59:54;;;;;;;51.63;34.43;;;;;;;;;;4952653;29;20424;-62
2023/10/19 01:02:28;;;;;;;48.03;33.10;;;;;;;;;;4952410;28;20471;-62
2023/10/19 01:05:04;;;;;;;51.60;36.40;;;;;;;;;;4952497;29;20883;-62
2023/10/19 01:07:30;;;;;;;50.77;35.40;;;;;;;;;;4953810;28;20763;-62
2023/10/19 01:10:08;;;;;;;48.40;35.13;;;;;;;;;;4953583;28;20482;-62
2023/10/19 01:12:38;;;;;;;58.63;36.80;;;;;;;;;;4953849;28;20442;-62
2023/10/19 01:15:23;;;;;;;49.67;34.80;;;;;;;;;;4954057;28;20419;-63
2023/10/19 01:17:52;;;;;;;60.50;36.37;;;;;;;;;;4953680;28;20415;-63
2023/10/19 01:20:33;;;;;;;59.60;37.10;;;;;;;;;;4957066;28;20549;-63
2023/10/19 01:26:28;;;;;;;65.93;36.93;;;;;;;;;;4957303;28;20414;-63
2023/10/19 01:28:43;;;;;;;54.60;37.30;;;;;;;;;;4946714;28;20476;-63
2023/10/19 01:31:14;;;;;;;58.57;36.73;;;;;;;;;;4957361;28;20474;-62
2023/10/19 01:33:41;;;;;;;52.37;35.63;;;;;;;;;;4957359;28;20407;-62
2023/10/19 01:36:11;;;;;;;51.50;35.77;;;;;;;;;;4957203;28;20450;-62
2023/10/19 01:38:37;;;;;;;50.37;32.97;;;;;;;;;;4956655;29;20431;-62
2023/10/19 01:41:19;;;;;;;47.10;33.40;;;;;;;;;;4956518;28;20517;-62
2023/10/19 01:43:46;;;;;;;49.37;33.33;;;;;;;;;;4957195;28;20490;-62
2023/10/19 01:46:12;;;;;;;50.13;32.50;;;;;;;;;;4956688;28;20431;-62
2023/10/19 01:48:45;;;;;;;56.30;35.20;;;;;;;;;;4956773;28;20415;-62
2023/10/19 01:51:12;;;;;;;52.63;35.20;;;;;;;;;;4956694;28;20423;-62
2023/10/19 01:53:44;;;;;;;54.17;33.20;;;;;;;;;;4956699;28;20446;-62
2023/10/19 01:56:12;;;;;;;46.93;34.20;;;;;;;;;;4956703;28;20415;-62
2023/10/19 01:58:39;;;;;;;43.03;32.60;;;;;;;;;;4956589;28;20821;-62
2023/10/19 02:03:36;;;;;;;56.23;36.33;;;;;;;;;;4956971;29;20911;-63
2023/10/19 02:06:27;;;;;;;45.47;33.50;;;;;;;;;;4956344;28;20902;-62
2023/10/19 02:08:56;;;;;;;62.77;36.07;;;;;;;;;;4959512;28;20486;-62
2023/10/19 02:11:23;;;;;;;42.40;31.43;;;;;;;;;;4974572;28;20458;-62
2023/10/19 02:13:50;;;;;;;52.83;34.47;;;;;;;;;;4974859;28;20742;-63
2023/10/19 02:16:20;;;;;;;48.67;33.33;;;;;;;;;;4975101;28;20946;-62
2023/10/19 02:18:46;;;;;;;47.20;34.57;;;;;;;;;;4975275;28;20473;-62
2023/10/19 02:21:12;;;;;;;48.27;33.50;;;;;;;;;;4975325;28;20474;-62
2023/10/19 02:23:39;;;;;;;55.33;36.13;;;;;;;;;;4975049;28;20410;-62
2023/10/19 02:26:05;;;;;;;55.77;35.10;;;;;;;;;;4975474;28;20475;-62
2023/10/19 02:28:32;;;;;;;56.50;34.87;;;;;;;;;;4975520;28;20421;-62
2023/10/19 02:31:10;;;;;;;50.37;34.50;;;;;;;;;;4974510;28;20461;-62
2023/10/19 02:33:36;;;;;;;47.80;33.47;;;;;;;;;;4975240;28;20421;-62
2023/10/19 02:36:03;;;;;;;51.83;32.90;;;;;;;;;;4975368;28;20494;-62
2023/10/19 02:38:29;;;;;;;40.83;30.77;;;;;;;;;;4974124;28;20448;-62
2023/10/19 02:40:56;;;;;;;46.90;32.03;;;;;;;;;;4974788;28;20466;-62
2023/10/19 02:43:24;;;;;;;52.00;31.47;;;;;;;;;;4975273;28;20395;-62
2023/10/19 02:45:51;;;;;;;47.13;31.60;;;;;;;;;;4975272;28;20399;-62
2023/10/19 02:48:17;;;;;;;41.40;29.57;;;;;;;;;;4975494;28;20414;-62
2023/10/19 02:50:46;;;;;;;52.00;32.40;;;;;;;;;;4974901;28;20418;-62
2023/10/19 02:53:13;;;;;;;39.73;29.60;;;;;;;;;;4974881;28;20431;-62
2023/10/19 02:55:40;;;;;;;39.17;29.17;;;;;;;;;;4974764;28;20438;-62
2023/10/19 02:58:06;;;;;;;45.17;29.70;;;;;;;;;;4974802;28;20434;-62
2023/10/19 03:00:34;;;;;;;49.33;29.57;;;;;;;;;;4974720;28;20565;-62
2023/10/19 03:03:00;;;;;;;43.40;27.73;;;;;;;;;;4974412;28;20418;-63
2023/10/19 03:05:27;;;;;;;42.93;30.03;;;;;;;;;;4974617;28;20418;-62
2023/10/19 03:07:53;;;;;;;41.60;27.53;;;;;;;;;;4974796;28;20399;-62
2023/10/19 03:10:34;;;;;;;35.87;25.83;;;;;;;;;;4974621;28;20799;-62
2023/10/19 03:13:04;;;;;;;31.00;25.43;;;;;;;;;;4974401;28;20484;-62
2023/10/19 03:15:33;;;;;;;28.40;21.80;;;;;;;;;;4974732;28;20426;-62
2023/10/19 03:18:01;;;;;;;31.10;22.67;;;;;;;;;;4974493;28;20922;-62
2023/10/19 03:20:27;;;;;;;28.97;21.87;;;;;;;;;;4974580;28;20462;-62
2023/10/19 03:22:53;;;;;;;31.70;23.50;;;;;;;;;;4974437;28;20898;-63
2023/10/19 03:28:11;;;;;;;38.10;31.27;;;;;;;;;;4974162;28;20968;-62
2023/10/19 03:30:43;;;;;;;33.87;27.80;;;;;;;;;;4974007;28;20968;-62
2023/10/19 03:33:09;;;;;;;27.57;24.13;;;;;;;;;;4974210;28;20517;-62
2023/10/19 03:35:45;;;;;;;28.70;24.80;;;;;;;;;;4974120;28;20426;-63
2023/10/19 03:38:16;;;;;;;30.13;26.80;;;;;;;;;;4974210;28;20414;-63
2023/10/19 03:40:51;;;;;;;32.90;25.83;;;;;;;;;;4973836;28;20835;-63
2023/10/19 03:43:17;;;;;;;31.37;25.10;;;;;;;;;;4974035;28;20815;-62
2023/10/19 03:45:49;;;;;;;31.00;25.70;;;;;;;;;;4974091;28;20962;-63
2023/10/19 03:48:18;;;;;;;55.13;30.00;;;;;;;;;;4973813;28;20415;-63
2023/10/19 03:50:48;;;;;;;42.23;28.70;;;;;;;;;;4973965;28;20470;-63
2023/10/19 03:53:14;;;;;;;44.63;30.40;;;;;;;;;;4973716;28;20436;-63
2023/10/19 03:55:43;;;;;;;32.13;26.10;;;;;;;;;;4973936;28;20431;-63
2023/10/19 03:58:11;;;;;;;31.17;24.60;;;;;;;;;;4973637;28;20973;-63
2023/10/19 04:00:38;;;;;;;60.87;43.43;;;;;;;;;;4973685;28;20466;-63
2023/10/19 04:03:04;;;;;;;53.93;43.30;;;;;;;;;;4973711;28;20438;-64
2023/10/19 04:05:31;;;;;;;27.50;21.70;;;;;;;;;;4973731;28;20430;-63
2023/10/19 04:07:58;;;;;;;32.80;21.40;;;;;;;;;;4973819;28;20426;-64
2023/10/19 04:10:38;;;;;;;26.87;22.07;;;;;;;;;;4973628;28;20437;-64
2023/10/19 04:13:04;;;;;;;24.00;18.73;;;;;;;;;;4971680;28;20432;-63
2023/10/19 04:15:33;;;;;;;28.70;19.80;;;;;;;;;;4973333;28;20428;-64
2023/10/19 04:18:00;;;;;;;24.87;19.10;;;;;;;;;;4973306;28;20442;-64
2023/10/19 04:20:41;;;;;;;23.60;18.53;;;;;;;;;;4971774;28;20530;-64
2023/10/19 04:23:10;;;;;;;27.60;18.77;;;;;;;;;;4973219;28;20425;-63
2023/10/19 04:25:36;;;;;;;26.13;19.90;;;;;;;;;;4973252;28;20418;-63
2023/10/19 04:28:03;;;;;;;19.57;15.93;;;;;;;;;;4973474;28;20461;-63
2023/10/19 04:30:33;;;;;;;19.30;16.00;;;;;;;;;;4973172;28;20449;-63
2023/10/19 04:33:01;;;;;;;17.60;14.93;;;;;;;;;;4973508;28;20451;-64
2023/10/19 04:35:32;;;;;;;19.20;16.10;;;;;;;;;;4971983;28;20837;-63
2023/10/19 04:37:59;;;;;;;27.57;15.10;;;;;;;;;;4973348;28;20438;-63
2023/10/19 04:40:26;;;;;;;18.00;15.57;;;;;;;;;;4973181;28;20466;-64
2023/10/19 04:42:53;;;;;;;21.80;15.90;;;;;;;;;;4973193;28;20784;-64
2023/10/19 04:45:19;;;;;;;17.30;15.47;;;;;;;;;;4971852;28;20430;-63
2023/10/19 04:47:46;;;;;;;20.70;18.50;;;;;;;;;;4973320;28;20431;-63
2023/10/19 04:50:16;;;;;;;25.37;18.83;;;;;;;;;;4972882;28;20419;-63
2023/10/19 04:52:42;;;;;;;20.40;17.77;;;;;;;;;;4973019;28;20921;-63
2023/10/19 04:55:08;;;;;;;23.67;17.50;;;;;;;;;;4976698;28;20722;-63
2023/10/19 04:57:34;;;;;;;24.97;18.70;;;;;;;;;;4977638;28;20441;-62
2023/10/19 05:00:00;;;;;;;38.67;24.03;;;;;;;;;;4976300;28;20431;-63
2023/10/19 05:02:26;;;;;;;29.27;23.77;;;;;;;;;;4977068;28;20478;-63
2023/10/19 05:04:53;;;;;;;30.80;21.40;;;;;;;;;;4977168;28;20465;-62
2023/10/19 05:07:20;;;;;;;22.67;18.60;;;;;;;;;;4977437;28;20437;-63
2023/10/19 05:09:46;;;;;;;22.73;17.40;;;;;;;;;;4977490;28;20445;-63
2023/10/19 05:12:14;;;;;;;25.37;18.70;;;;;;;;;;4977348;28;20453;-63
2023/10/19 05:14:41;;;;;;;22.43;16.37;;;;;;;;;;4977407;28;20425;-63
2023/10/19 05:17:08;;;;;;;16.87;15.27;;;;;;;;;;4976999;28;20513;-63
2023/10/19 05:19:35;;;;;;;18.33;16.40;;;;;;;;;;4977351;28;20426;-63
2023/10/19 05:22:02;;;;;;;28.77;18.23;;;;;;;;;;4976894;28;20836;-63
2023/10/19 05:24:28;;;;;;;27.47;19.23;;;;;;;;;;4976874;28;20502;-63
2023/10/19 05:26:54;;;;;;;23.80;20.40;;;;;;;;;;4976920;28;20410;-63
2023/10/19 05:29:21;;;;;;;29.73;20.50;;;;;;;;;;4976839;28;20426;-63
2023/10/19 05:31:53;;;;;;;25.30;19.17;;;;;;;;;;4976995;28;20411;-63
2023/10/19 05:34:19;;;;;;;31.47;21.63;;;;;;;;;;4976750;28;20430;-63
2023/10/19 05:36:48;;;;;;;35.13;20.77;;;;;;;;;;4976640;28;20403;-63
2023/10/19 05:39:14;;;;;;;28.70;21.70;;;;;;;;;;4976957;28;20889;-63
2023/10/19 05:41:40;;;;;;;25.80;19.90;;;;;;;;;;4976535;28;20474;-63
2023/10/19 05:44:07;;;;;;;30.97;19.70;;;;;;;;;;4976686;28;20472;-63
2023/10/19 05:46:33;;;;;;;27.13;20.40;;;;;;;;;;4976848;28;20757;-63
2023/10/19 05:48:59;;;;;;;33.37;20.63;;;;;;;;;;4976549;28;20446;-63
2023/10/19 05:51:27;;;;;;;22.53;18.87;;;;;;;;;;4975384;28;20451;-63
2023/10/19 05:54:01;;;;;;;22.70;17.87;;;;;;;;;;4976529;28;20454;-63
2023/10/19 05:56:27;;;;;;;23.37;17.87;;;;;;;;;;4976408;28;20438;-63
2023/10/19 05:58:53;;;;;;;21.63;17.80;;;;;;;;;;4976306;28;20528;-63
2023/10/19 06:01:19;;;;;;;22.90;19.98;;;;;;;;;;4975408;28;20524;-62
2023/10/19 06:03:45;;;;;;;31.40;20.17;;;;;;;;;;4976428;28;20199;-63
2023/10/19 06:06:14;;;;;;;31.17;20.47;;;;;;;;;;4975009;28;20465;-62
2023/10/19 06:08:43;;;;;;;37.23;27.47;;;;;;;;;;4976182;28;20466;-62
2023/10/19 06:11:09;;;;;;;30.53;23.70;;;;;;;;;;4976209;28;20968;-61
2023/10/19 06:13:35;;;;;;;26.33;18.50;;;;;;;;;;4976098;28;20450;-62
2023/10/19 06:16:03;;;;;;;29.30;19.70;;;;;;;;;;4976153;28;20898;-62
2023/10/19 06:18:29;;;;;;;26.83;19.30;;;;;;;;;;4976158;28;20414;-62
2023/10/19 06:20:58;;;;;;;22.50;18.40;;;;;;;;;;4976053;28;20984;-62
2023/10/19 06:23:24;;;;;;;26.20;19.63;;;;;;;;;;4976088;28;20442;-62
2023/10/19 06:25:53;;;;;;;25.07;17.93;;;;;;;;;;4976067;28;20909;-62
2023/10/19 06:28:19;;;;;;;25.90;17.47;;;;;;;;;;4975998;28;20442;-62
2023/10/19 06:30:48;;;;;;;42.10;33.40;;;;;;;;;;4976165;28;20513;-62
2023/10/19 06:33:16;;;;;;;24.87;19.00;;;;;;;;;;4976333;28;20442;-62
2023/10/19 06:35:42;;;;;;;26.63;19.40;;;;;;;;;;4974690;28;20713;-61
2023/10/19 06:38:09;;;;;;;20.80;17.87;;;;;;;;;;4976176;28;20446;-61
2023/10/19 06:40:38;;;;;;;24.87;18.67;;;;;;;;;;4975632;28;20941;-62
2023/10/19 06:43:05;;;;;;;24.63;20.30;;;;;;;;;;4975661;28;20438;-62
2023/10/19 06:45:31;;;;;;;32.50;24.83;;;;;;;;;;4975523;28;20402;-62
2023/10/19 06:48:00;;;;;;;42.93;29.10;;;;;;;;;;4975169;28;20431;-62
2023/10/19 06:50:26;;;;;;;42.10;26.20;;;;;;;;;;4975463;28;20406;-62
2023/10/19 06:52:54;;;;;;;34.80;26.50;;;;;;;;;;4975412;28;20399;-62
2023/10/19 06:55:20;;;;;;;37.67;26.90;;;;;;;;;;4975230;28;20432;-62
2023/10/19 06:57:51;;;;;;;143.80;96.00;;;;;;;;;;4973894;28;20446;-61
2023/10/19 07:00:26;;;;;;;75.00;56.43;;;;;;;;;;4974757;28;20413;-62
2023/10/19 07:02:52;;;;;;;39.67;25.10;;;;;;;;;;4975383;28;20437;-62
2023/10/19 07:05:21;;;;;;;31.50;26.07;;;;;;;;;;4975140;28;20406;-62
2023/10/19 07:07:49;;;;;;;37.10;24.63;;;;;;;;;;4975165;28;20418;-62
2023/10/19 07:10:15;;;;;;;23.93;20.17;;;;;;;;;;4974613;28;20887;-61
2023/10/19 07:12:51;;;;;;;24.70;21.13;;;;;;;;;;4975005;28;20485;-62
2023/10/19 07:15:25;;;;;;;26.33;21.47;;;;;;;;;;4975093;28;20426;-62
2023/10/19 07:17:54;;;;;;;28.57;25.00;;;;;;;;;;4974747;28;20458;-62
2023/10/19 07:20:32;;;;;;;42.67;34.20;;;;;;;;;;4974978;28;20435;-63
2023/10/19 07:23:03;;;;;;;57.50;36.77;;;;;;;;;;4975006;28;20489;-62
2023/10/19 07:25:31;;;;;;;56.43;40.20;;;;;;;;;;4975012;28;20454;-62
2023/10/19 07:27:59;;;;;;;70.67;44.97;;;;;;;;;;4974935;28;20453;-62
2023/10/19 07:30:28;;;;;;;65.07;41.67;;;;;;;;;;4974907;28;20415;-62
2023/10/19 07:32:58;;;;;;;30.47;22.57;;;;;;;;;;4974702;28;20419;-62
2023/10/19 07:35:25;;;;;;;23.97;18.50;;;;;;;;;;4974703;28;20906;-63
2023/10/19 07:37:52;;;;;;;21.13;17.03;;;;;;;;;;4974599;28;20435;-62
2023/10/19 07:40:18;;;;;;;20.37;16.37;;;;;;;;;;4974604;28;20901;-62
2023/10/19 07:42:44;;;;;;;20.57;16.87;;;;;;;;;;4974777;28;20482;-62
2023/10/19 07:45:14;;;;;;;18.93;16.50;;;;;;;;;;4974584;28;20437;-62
2023/10/19 07:47:41;;;;;;;20.83;17.80;;;;;;;;;;4974547;28;20467;-62
2023/10/19 07:50:16;;;;;;;18.83;16.50;;;;;;;;;;4974434;28;20461;-62
2023/10/19 07:52:51;;;;;;;17.83;15.70;;;;;;;;;;4974396;28;20411;-62
2023/10/19 07:55:18;;;;;;;22.17;15.57;;;;;;;;;;4974561;28;20421;-62
2023/10/19 07:57:46;;;;;;;20.93;16.27;;;;;;;;;;4974235;28;20444;-62
2023/10/19 08:00:17;;;;;;;21.00;16.30;;;;;;;;;;4974299;28;20467;-62
2023/10/19 08:02:45;;;;;;;24.07;15.40;;;;;;;;;;4974203;28;20427;-62
2023/10/19 08:05:11;;;;;;;20.43;17.07;;;;;;;;;;4973961;28;20426;-62
2023/10/19 08:07:39;;;;;;;23.40;17.73;;;;;;;;;;4974342;28;20403;-62
2023/10/19 08:10:10;;;;;;;21.80;16.73;;;;;;;;;;4974009;28;20436;-62
2023/10/19 08:12:36;;;;;;;21.97;18.20;;;;;;;;;;4974120;28;20408;-62
2023/10/19 08:15:07;;;;;;;30.10;17.40;;;;;;;;;;4973770;28;20846;-62
2023/10/19 08:17:33;;;;;;;22.83;17.17;;;;;;;;;;4974099;28;20419;-62
2023/10/19 08:20:08;;;;;;;31.33;17.53;;;;;;;;;;4973817;28;20428;-62
2023/10/19 08:22:36;;;;;;;18.63;16.43;;;;;;;;;;4972542;28;20508;-62
2023/10/19 08:25:03;;;;;;;24.87;17.70;;;;;;;;;;4973795;28;20793;-63
2023/10/19 08:27:30;;;;;;;41.30;24.47;;;;;;;;;;4973881;28;20409;-62
2023/10/19 08:29:57;;;;;;;49.30;34.43;;;;;;;;;;4973095;28;20436;-62
2023/10/19 08:32:23;;;;;;;40.93;26.73;;;;;;;;;;4972707;28;20434;-62
2023/10/19 08:34:49;;;;;;;29.57;21.10;;;;;;;;;;4973761;28;20917;-62
2023/10/19 08:37:15;;;;;;;24.70;19.40;;;;;;;;;;4973784;28;20443;-63
2023/10/19 08:39:43;;;;;;;24.17;18.37;;;;;;;;;;4973783;28;20482;-63
2023/10/19 08:42:10;;;;;;;29.03;20.87;;;;;;;;;;4973624;28;21012;-63
2023/10/19 08:44:38;;;;;;;24.73;20.23;;;;;;;;;;4973644;28;20870;-63
2023/10/19 08:47:05;;;;;;;28.23;20.47;;;;;;;;;;4973498;28;20786;-63
2023/10/19 08:49:31;;;;;;;24.60;19.73;;;;;;;;;;4972458;28;20455;-63
2023/10/19 08:52:04;;;;;;;25.10;16.93;;;;;;;;;;4973501;28;20436;-63
2023/10/19 08:54:30;;;;;;;18.10;16.27;;;;;;;;;;4973917;28;20539;-63
2023/10/19 08:56:56;;;;;;;23.10;18.07;;;;;;;;;;4973656;28;20528;-63
2023/10/19 08:59:23;;;;;;;26.83;18.70;;;;;;;;;;4973496;28;20432;-63
2023/10/19 09:01:49;;;;;;;22.10;17.73;;;;;;;;;;4973601;28;20483;-63
2023/10/19 09:04:16;;;;;;;35.67;29.30;;;;;;;;;;4973325;28;20413;-63
2023/10/19 09:06:42;;;;;;;29.20;24.17;;;;;;;;;;4973440;28;20850;-63
2023/10/19 09:09:19;;;;;;;30.70;21.60;;;;;;;;;;4973455;28;20439;-63
2023/10/19 09:11:52;;;;;;;25.53;20.63;;;;;;;;;;4973540;28;20424;-62
2023/10/19 09:14:33;;;;;;;27.10;21.23;;;;;;;;;;4973576;28;20459;-63
2023/10/19 09:17:00;;;;;;;33.03;22.17;;;;;;;;;;4973475;28;20427;-63
2023/10/19 09:19:36;;;;;;;28.43;22.07;;;;;;;;;;4973231;28;20416;-63
2023/10/19 09:22:07;;;;;;;30.87;20.93;;;;;;;;;;4973773;28;20460;-63
2023/10/19 09:24:34;;;;;;;31.20;21.80;;;;;;;;;;4973569;28;20394;-64
2023/10/19 09:27:01;;;;;;;30.17;20.23;;;;;;;;;;4973393;28;20411;-65
2023/10/19 09:29:27;;;;;;;28.00;18.87;;;;;;;;;;4973345;28;20419;-63
2023/10/19 09:31:56;;;;;;;36.17;20.53;;;;;;;;;;4973607;28;20410;-63
2023/10/19 09:34:23;;;;;;;26.57;20.60;;;;;;;;;;4973153;28;20420;-63
2023/10/19 09:36:49;;;;;;;31.00;20.97;;;;;;;;;;4972070;28;20432;-63
2023/10/19 09:39:16;;;;;;;34.70;23.07;;;;;;;;;;4973259;28;20829;-63
2023/10/19 09:41:42;;;;;;;40.77;24.60;;;;;;;;;;4976648;28;20530;-63
2023/10/19 09:44:12;;;;;;;33.20;23.00;;;;;;;;;;4976773;28;20407;-63
2023/10/19 09:46:39;;;;;;;26.00;20.17;;;;;;;;;;4976697;28;20448;-62
2023/10/19 09:49:06;;;;;;;32.90;21.53;;;;;;;;;;4976554;28;20760;-62
2023/10/19 09:51:33;;;;;;;35.63;22.93;;;;;;;;;;4976633;28;20531;-63
2023/10/19 09:54:09;;;;;;;36.80;22.57;;;;;;;;;;4976607;28;20760;-63
2023/10/19 09:56:37;;;;;;;34.53;22.77;;;;;;;;;;4976490;28;20926;-63
2023/10/19 09:59:07;;;;;;;36.23;20.00;;;;;;;;;;4976700;28;20418;-63
2023/10/19 10:01:51;;;;;;;32.37;20.60;;;;;;;;;;4976249;28;20483;-62
2023/10/19 10:04:33;;;;;;;33.97;27.37;;;;;;;;;;4976587;28;20409;-62
2023/10/19 10:07:00;;;;;;;34.27;22.20;;;;;;;;;;4976501;28;20888;-63
2023/10/19 10:09:29;;;;;;;40.80;24.43;;;;;;;;;;4976656;28;20418;-62
2023/10/19 10:11:56;;;;;;;36.90;22.47;;;;;;;;;;4976189;28;20453;-62
2023/10/19 10:14:25;;;;;;;32.50;25.93;;;;;;;;;;4976054;28;20411;-62
2023/10/19 10:17:01;;;;;;;34.77;25.07;;;;;;;;;;4976277;28;20434;-62
2023/10/19 10:19:27;;;;;;;36.00;24.53;;;;;;;;;;4976236;28;20592;-62
2023/10/19 10:22:21;;;;;;;47.93;28.03;;;;;;;;;;4976126;28;20961;-62
2023/10/19 10:24:49;;;;;;;37.73;23.53;;;;;;;;;;4974170;28;20429;-62
2023/10/19 10:27:19;;;;;;;35.73;23.93;;;;;;;;;;4976033;28;20798;-62
2023/10/19 10:29:55;;;;;;;29.50;22.93;;;;;;;;;;4975742;28;20425;-63
2023/10/19 10:32:40;;;;;;;36.20;25.97;;;;;;;;;;4975981;28;20740;-62
2023/10/19 10:35:06;;;;;;;44.63;27.10;;;;;;;;;;4975800;28;20504;-62
2023/10/19 10:37:37;;;;;;;32.37;23.90;;;;;;;;;;4978983;28;20500;-62
2023/10/19 10:40:05;;;;;;;28.20;23.00;;;;;;;;;;4995234;28;20412;-63
2023/10/19 10:42:34;;;;;;;41.90;32.97;;;;;;;;;;4995248;28;20456;-63
2023/10/19 10:45:05;;;;;;;27.10;21.63;;;;;;;;;;4995563;28;20429;-63
2023/10/19 10:47:33;;;;;;;30.03;21.53;;;;;;;;;;4995452;28;20734;-63
2023/10/19 10:50:01;;;;;;;24.23;18.47;;;;;;;;;;4995149;28;20467;-63
2023/10/19 10:52:29;;;;;;;22.07;15.17;;;;;;;;;;4994464;28;20429;-62
2023/10/19 10:54:55;;;;;;;25.23;18.73;;;;;;;;;;4994817;28;20410;-63
2023/10/19 10:57:21;;;;;;;15.97;14.30;;;;;;;;;;4994797;28;20879;-63
2023/10/19 10:59:47;;;;;;;19.17;16.33;;;;;;;;;;4994733;28;20856;-63
2023/10/19 11:02:21;;;;;;;21.53;18.13;;;;;;;;;;4994790;28;20504;-63
2023/10/19 11:04:48;;;;;;;24.27;17.53;;;;;;;;;;4995109;28;20513;-63
2023/10/19 11:07:21;;;;;;;37.07;20.03;;;;;;;;;;4994799;28;20461;-62
2023/10/19 11:09:49;;;;;;;27.57;21.50;;;;;;;;;;4994696;28;20430;-63
2023/10/19 11:12:15;;;;;;;21.73;19.43;;;;;;;;;;4994602;28;20438;-63
2023/10/19 11:14:53;;;;;;;23.27;19.47;;;;;;;;;;4994574;28;20399;-63
2023/10/19 11:17:23;;;;;;;24.77;20.27;;;;;;;;;;4994593;28;20444;-62
2023/10/19 11:19:49;;;;;;;29.33;22.10;;;;;;;;;;4994475;28;20442;-62
2023/10/19 11:22:15;;;;;;;25.97;22.10;;;;;;;;;;4994599;28;20907;-62
2023/10/19 11:24:41;;;;;;;28.30;20.93;;;;;;;;;;4994505;28;20426;-62
2023/10/19 11:27:07;;;;;;;28.47;21.30;;;;;;;;;;4994185;28;20419;-62
2023/10/19 11:29:36;;;;;;;25.30;20.60;;;;;;;;;;4994360;28;20493;-62
2023/10/19 11:32:05;;;;;;;34.77;21.33;;;;;;;;;;4993978;28;20450;-62
2023/10/19 11:34:34;;;;;;;33.10;21.93;;;;;;;;;;4994103;28;20484;-62
2023/10/19 11:37:02;;;;;;;35.13;23.70;;;;;;;;;;4994129;28;20638;-62
2023/10/19 11:39:28;;;;;;;34.07;26.90;;;;;;;;;;4987657;28;20422;-62
2023/10/19 11:41:54;;;;;;;24.77;19.50;;;;;;;;;;4974457;28;20537;-62
2023/10/19 11:44:20;;;;;;;29.57;22.03;;;;;;;;;;4974701;28;20459;-62
2023/10/19 11:46:49;;;;;;;30.73;20.27;;;;;;;;;;4974395;28;20418;-62
2023/10/19 11:49:15;;;;;;;24.90;20.57;;;;;;;;;;4974301;28;20850;-62
2023/10/19 11:51:41;;;;;;;36.20;21.73;;;;;;;;;;4974423;28;20486;-62
2023/10/19 11:54:07;;;;;;;30.27;21.33;;;;;;;;;;4974283;28;20462;-62
2023/10/19 11:56:33;;;;;;;19.60;17.50;;;;;;;;;;4974152;28;20469;-63
2023/10/19 11:58:59;;;;;;;23.23;17.47;;;;;;;;;;4974382;28;20418;-62
2023/10/19 12:01:29;;;;;;;24.03;16.77;;;;;;;;;;4982218;28;20910;-63
2023/10/19 12:03:55;;;;;;;25.03;17.93;;;;;;;;;;4992752;28;20438;-63
2023/10/19 12:06:23;;;;;;;22.27;18.33;;;;;;;;;;4993759;28;20798;-62
2023/10/19 12:08:49;;;;;;;25.67;18.93;;;;;;;;;;4993803;28;20422;-62
2023/10/19 12:11:16;;;;;;;27.13;19.73;;;;;;;;;;4993500;28;20418;-62
2023/10/19 12:13:46;;;;;;;29.73;19.57;;;;;;;;;;4993487;28;20797;-62
2023/10/19 12:16:15;;;;;;;23.37;18.80;;;;;;;;;;4993431;28;20502;-62
2023/10/19 12:18:42;;;;;;;25.47;18.07;;;;;;;;;;4993652;28;20508;-62
2023/10/19 12:21:11;;;;;;;24.57;18.03;;;;;;;;;;4993803;28;20497;-62
2023/10/19 12:23:40;;;;;;;23.93;17.77;;;;;;;;;;4993866;28;20517;-63
2023/10/19 12:26:10;;;;;;;22.27;15.93;;;;;;;;;;4993848;28;20897;-62
2023/10/19 12:28:38;;;;;;;17.87;14.33;;;;;;;;;;4994261;28;20409;-62
2023/10/19 12:31:05;;;;;;;15.90;14.20;;;;;;;;;;4993488;28;20779;-62
2023/10/19 12:33:31;;;;;;;16.90;12.60;;;;;;;;;;4993203;28;20428;-62
2023/10/19 12:36:00;;;;;;;15.07;11.90;;;;;;;;;;4993279;28;20470;-62
2023/10/19 12:38:27;;;;;;;18.63;11.77;;;;;;;;;;4993103;28;20453;-62
2023/10/19 12:40:54;;;;;;;16.13;11.53;;;;;;;;;;4993232;28;20903;-62
2023/10/19 12:43:23;;;;;;;9.07;8.20;;;;;;;;;;4993133;28;20439;-62
2023/10/19 12:45:57;;;;;;;7.80;7.10;;;;;;;;;;4992854;28;20448;-61
2023/10/19 12:48:33;;;;;;;6.93;6.13;;;;;;;;;;4993017;28;20492;-62
2023/10/19 12:50:59;;;;;;;5.53;5.23;;;;;;;;;;4993332;28;20423;-62
2023/10/19 12:53:27;;;;;;;5.20;4.80;;;;;;;;;;4992820;28;20422;-62
2023/10/19 12:55:53;;;;;;;6.13;5.47;;;;;;;;;;4992823;28;20437;-61
2023/10/19 12:58:19;;;;;;;6.53;5.90;;;;;;;;;;4992858;28;20438;-62
2023/10/19 13:00:48;;;;;;;4.30;3.53;;;;;;;;;;4993029;28;20484;-62
2023/10/19 13:03:16;;;;;;;2.40;2.20;;;;;;;;;;4992780;28;20435;-61
2023/10/19 13:05:46;;;;;;;2.80;2.60;;;;;;;;;;4993038;28;20439;-62
2023/10/19 13:08:16;;;;;;;3.63;2.50;;;;;;;;;;4992806;28;20515;-61
2023/10/19 13:10:43;;;;;;;2.90;2.73;;;;;;;;;;4992787;28;20449;-62
2023/10/19 13:13:14;;;;;;;3.20;2.30;;;;;;;;;;4992553;28;20439;-62
2023/10/19 13:15:41;;;;;;;3.33;2.50;;;;;;;;;;4994985;28;20910;-62
2023/10/19 13:18:10;;;;;;;5.23;2.17;;;;;;;;;;4996690;28;20880;-62
2023/10/19 13:20:37;;;;;;;7.40;6.33;;;;;;;;;;4995197;28;20854;-62
2023/10/19 13:23:04;;;;;;;4.80;4.40;;;;;;;;;;4995232;28;20457;-62
2023/10/19 13:25:39;;;;;;;3.53;1.60;;;;;;;;;;4996140;28;20449;-62
2023/10/19 13:28:14;;;;;;;4.20;3.90;;;;;;;;;;4996532;28;20557;-62
2023/10/19 13:30:43;;;;;;;3.47;3.10;;;;;;;;;;4996247;28;20415;-62
2023/10/19 13:33:13;;;;;;;5.73;4.03;;;;;;;;;;4996806;28;20800;-62
2023/10/19 13:35:39;;;;;;;1.87;1.77;;;;;;;;;;4996930;28;20422;-62
2023/10/19 13:38:07;;;;;;;1.63;1.53;;;;;;;;;;4996192;28;20432;-64
2023/10/19 13:40:33;;;;;;;1.80;1.80;;;;;;;;;;4995965;28;20764;-63
2023/10/19 13:43:04;;;;;;;2.87;2.70;;;;;;;;;;4996078;28;20537;-63
2023/10/19 13:45:31;;;;;;;2.60;2.43;;;;;;;;;;4996081;28;20415;-63
2023/10/19 13:47:58;;;;;;;4.03;3.63;;;;;;;;;;4995951;28;20440;-63
2023/10/19 13:50:26;;;;;;;2.63;1.80;;;;;;;;;;4996037;28;20397;-63
2023/10/19 13:52:52;;;;;;;8.47;5.07;;;;;;;;;;4996021;28;20435;-63
2023/10/19 13:55:20;;;;;;;6.97;6.37;;;;;;;;;;4996048;28;20937;-63
2023/10/19 13:57:46;;;;;;;5.90;4.67;;;;;;;;;;4996083;28;20434;-63
2023/10/19 14:00:19;;;;;;;4.97;4.50;;;;;;;;;;4996151;28;20442;-63
2023/10/19 14:02:48;;;;;;;6.57;4.93;;;;;;;;;;4995750;28;20847;-63
2023/10/19 14:05:15;;;;;;;4.47;4.17;;;;;;;;;;4995828;28;20423;-63
2023/10/19 14:07:43;;;;;;;3.00;2.80;;;;;;;;;;4995543;28;20498;-63
2023/10/19 14:10:13;;;;;;;3.03;2.93;;;;;;;;;;4995755;28;20404;-63
2023/10/19 14:12:42;;;;;;;3.63;3.33;;;;;;;;;;4995489;28;20431;-63
2023/10/19 14:15:09;;;;;;;12.40;10.73;;;;;;;;;;4995632;28;20887;-63
2023/10/19 14:17:35;;;;;;;6.50;5.90;;;;;;;;;;4995379;28;20916;-63
2023/10/19 14:20:01;;;;;;;4.17;3.97;;;;;;;;;;4995561;28;20434;-63
2023/10/19 14:22:27;;;;;;;4.57;4.20;;;;;;;;;;4995336;28;20969;-63
2023/10/19 14:24:53;;;;;;;5.50;5.13;;;;;;;;;;4995456;28;20473;-63
2023/10/19 14:27:19;;;;;;;6.33;5.73;;;;;;;;;;4994141;28;20887;-63
2023/10/19 14:29:47;;;;;;;4.70;4.30;;;;;;;;;;4995441;28;20512;-63
2023/10/19 14:32:13;;;;;;;5.93;4.80;;;;;;;;;;4995269;28;20430;-63
2023/10/19 14:34:39;;;;;;;3.63;3.00;;;;;;;;;;4995202;28;20439;-63
2023/10/19 14:37:05;;;;;;;3.60;3.50;;;;;;;;;;4995178;28;20431;-63
2023/10/19 14:39:31;;;;;;;3.23;2.93;;;;;;;;;;4995138;28;20505;-63
2023/10/19 14:41:57;;;;;;;4.60;4.40;;;;;;;;;;4995039;28;20461;-63